Time;durP1;ratioP1;P1;durP2;ratioP2;P2;SDS_P1;SDS_P2;PMS_P1;PMS_P2;Temp;Humidity;BMP_temperature;BMP_pressure;BME280_temperature;BME280_humidity;BME280_pressure;Samples;Min_cycle;Max_cycle;Signal;HPM_P1;HPM_P2
2021/03/10 00:00:29;;;;;;;34.95;11.35;;;;;;;-7.53;72.80;100282.22;3509662;28;20051;-47
2021/03/10 00:02:10;;;;;;;34.72;12.20;;;;;;;-7.54;73.25;100284.59;3514734;28;20054;-47
2021/03/10 00:03:52;;;;;;;42.45;14.57;;;;;;;-7.57;73.06;100277.66;3523556;28;20044;-47
2021/03/10 00:05:34;;;;;;;47.17;14.20;;;;;;;-7.60;73.18;100280.75;3518837;28;20052;-47
2021/03/10 00:07:15;;;;;;;31.73;12.23;;;;;;;-7.61;73.23;100285.63;3521321;28;20051;-47
2021/03/10 00:08:57;;;;;;;34.58;14.18;;;;;;;-7.64;73.45;100278.69;3523263;28;20435;-46
2021/03/10 00:10:38;;;;;;;40.10;14.38;;;;;;;-7.67;72.91;100278.41;3522898;28;20083;-47
2021/03/10 00:12:20;;;;;;;29.05;11.85;;;;;;;-7.70;73.02;100274.69;3525675;28;20059;-46
2021/03/10 00:14:01;;;;;;;36.15;13.52;;;;;;;-7.74;73.21;100276.03;3521051;28;20082;-47
2021/03/10 00:15:43;;;;;;;34.42;12.90;;;;;;;-7.75;73.56;100275.88;3526054;28;20083;-46
2021/03/10 00:17:28;;;;;;;37.08;14.88;;;;;;;-7.75;73.96;100273.38;3522753;28;20044;-47
2021/03/10 00:19:09;;;;;;;36.80;13.90;;;;;;;-7.77;73.88;100275.75;3523513;28;20086;-48
2021/03/10 00:20:51;;;;;;;37.50;13.38;;;;;;;-7.80;73.71;100276.34;3523122;28;20554;-47
2021/03/10 00:22:33;;;;;;;34.72;13.73;;;;;;;-7.83;73.88;100276.03;3521111;28;20064;-46
2021/03/10 00:24:15;;;;;;;35.80;13.57;;;;;;;-7.85;73.55;100269.09;3511718;28;20048;-48
2021/03/10 00:25:57;;;;;;;36.78;14.05;;;;;;;-7.88;73.22;100274.72;3517218;28;20527;-47
2021/03/10 00:27:39;;;;;;;43.63;15.15;;;;;;;-7.90;73.16;100273.69;3525765;28;20101;-46
2021/03/10 00:29:20;;;;;;;39.00;15.10;;;;;;;-7.92;73.14;100266.75;3520237;28;20097;-47
2021/03/10 00:31:02;;;;;;;45.97;15.50;;;;;;;-7.92;73.30;100271.78;3524594;28;20078;-47
2021/03/10 00:32:43;;;;;;;39.33;14.85;;;;;;;-7.93;73.62;100270.00;3512610;28;20062;-47
2021/03/10 00:34:42;;;;;;;37.70;14.07;;;;;;;-7.94;74.13;100269.09;3517519;28;20048;-47
2021/03/10 00:36:24;;;;;;;45.17;15.93;;;;;;;-7.99;72.89;100266.13;3525761;28;20096;-47
2021/03/10 00:38:06;;;;;;;41.42;15.10;;;;;;;-8.02;73.11;100270.88;3520592;28;20485;-47
2021/03/10 00:39:49;;;;;;;37.13;14.40;;;;;;;-8.02;73.75;100270.00;3523663;28;20048;-48
2021/03/10 00:41:30;;;;;;;49.58;15.40;;;;;;;-8.05;73.98;100268.09;3522890;28;20124;-46
2021/03/10 00:43:12;;;;;;;39.80;15.55;;;;;;;-8.04;74.44;100269.84;3522150;28;20070;-46
2021/03/10 00:44:53;;;;;;;34.30;15.18;;;;;;;-8.05;74.60;100268.09;3512138;28;20509;-47
2021/03/10 00:46:34;;;;;;;36.00;15.30;;;;;;;-8.08;74.39;100267.78;3517517;28;20040;-46
2021/03/10 00:48:18;;;;;;;46.58;16.90;;;;;;;-8.12;73.70;100259.78;3525562;28;20055;-46
2021/03/10 00:49:59;;;;;;;44.42;16.55;;;;;;;-8.19;73.76;100263.34;3521845;28;20051;-46
2021/03/10 00:51:41;;;;;;;39.70;16.00;;;;;;;-8.22;74.15;100270.59;3524672;28;20055;-48
2021/03/10 00:53:23;;;;;;;46.50;16.48;;;;;;;-8.28;73.81;100257.41;3522713;28;20070;-47
2021/03/10 00:55:05;;;;;;;35.72;14.25;;;;;;;-8.33;73.68;100269.56;3521312;28;20066;-46
2021/03/10 00:56:46;;;;;;;41.17;15.93;;;;;;;-8.37;73.85;100268.38;3524938;28;20048;-47
2021/03/10 00:58:28;;;;;;;35.20;13.45;;;;;;;-8.40;73.98;100265.56;3521950;28;20044;-46
2021/03/10 01:00:11;;;;;;;42.83;16.15;;;;;;;-8.41;73.92;100271.31;3525318;28;20109;-47
2021/03/10 01:01:53;;;;;;;38.90;15.15;;;;;;;-8.41;73.65;100272.94;3521832;28;20092;-47
2021/03/10 01:03:35;;;;;;;39.50;15.95;;;;;;;-8.41;73.68;100272.94;3522998;28;20052;-46
2021/03/10 01:05:16;;;;;;;47.20;16.60;;;;;;;-8.41;73.89;100266.28;3522601;28;20420;-47
2021/03/10 01:06:58;;;;;;;49.92;17.73;;;;;;;-8.39;74.38;100268.94;3522353;28;20040;-46
2021/03/10 01:08:39;;;;;;;47.67;18.75;;;;;;;-8.37;75.06;100264.94;3524946;28;20048;-47
2021/03/10 01:10:21;;;;;;;40.50;17.20;;;;;;;-8.35;75.50;100266.00;3521719;28;20048;-47
2021/03/10 01:12:02;;;;;;;46.63;16.50;;;;;;;-8.33;75.74;100259.50;3525092;28;20508;-46
2021/03/10 01:13:44;;;;;;;54.33;18.05;;;;;;;-8.34;75.89;100262.72;3514662;28;20048;-47
2021/03/10 01:15:26;;;;;;;48.50;17.50;;;;;;;-8.32;76.04;100262.88;3511390;28;20055;-47
2021/03/10 01:17:07;;;;;;;48.58;17.08;;;;;;;-8.32;76.01;100261.25;3512913;28;20090;-47
2021/03/10 01:18:48;;;;;;;46.33;17.48;;;;;;;-8.35;75.39;100261.84;3514444;28;20047;-47
2021/03/10 01:20:30;;;;;;;58.25;18.10;;;;;;;-8.36;75.80;100264.22;3524301;28;20050;-48
2021/03/10 01:22:12;;;;;;;43.42;16.10;;;;;;;-8.39;75.94;100262.31;3521307;28;20048;-48
2021/03/10 01:23:53;;;;;;;48.58;17.60;;;;;;;-8.40;76.15;100263.03;3525075;28;20138;-46
2021/03/10 01:25:35;;;;;;;52.05;18.02;;;;;;;-8.42;76.30;100259.47;3520048;28;20043;-46
2021/03/10 01:27:17;;;;;;;39.65;16.52;;;;;;;-8.41;76.45;100263.75;3524197;28;20412;-46
2021/03/10 01:28:59;;;;;;;42.15;15.50;;;;;;;-8.42;76.42;100264.50;3521493;28;20514;-46
2021/03/10 01:30:40;;;;;;;41.65;15.57;;;;;;;-8.42;76.47;100267.03;3521095;28;20101;-46
2021/03/10 01:32:22;;;;;;;43.33;15.32;;;;;;;-8.43;76.62;100264.38;3524046;28;20462;-46
2021/03/10 01:34:03;;;;;;;40.40;14.95;;;;;;;-8.45;75.67;100266.72;3521279;28;20428;-47
2021/03/10 01:35:45;;;;;;;43.13;14.02;;;;;;;-8.48;75.30;100263.91;3525087;28;20135;-46
2021/03/10 01:37:27;;;;;;;40.50;13.73;;;;;;;-8.50;75.15;100262.00;3521271;28;20096;-46
2021/03/10 01:39:08;;;;;;;46.83;16.40;;;;;;;-8.50;75.09;100260.34;3522978;28;20055;-46
2021/03/10 01:40:50;;;;;;;36.72;13.15;;;;;;;-8.54;74.27;100263.31;3521251;28;20044;-46
2021/03/10 01:42:31;;;;;;;31.23;13.48;;;;;;;-8.57;74.04;100260.50;3522573;28;20508;-48
2021/03/10 01:44:15;;;;;;;38.47;13.80;;;;;;;-8.58;74.10;100263.72;3523855;28;20055;-46
2021/03/10 01:45:56;;;;;;;;;;;;;;;-8.60;74.08;100261.09;3521608;28;20051;-47
2021/03/10 01:47:41;;;;;;;31.48;11.65;;;;;;;-8.60;73.96;100260.19;3524864;28;19975;-47
2021/03/10 01:49:23;;;;;;;37.92;13.90;;;;;;;-8.61;73.85;100266.84;3521263;28;20039;-46
2021/03/10 01:51:05;;;;;;;33.03;13.88;;;;;;;-8.64;74.15;100264.03;3523684;28;20421;-46
2021/03/10 01:52:47;;;;;;;44.65;14.52;;;;;;;-8.63;74.77;100267.44;3522209;28;20054;-47
2021/03/10 01:54:29;;;;;;;41.03;14.75;;;;;;;-8.64;74.84;100271.56;3519686;28;20578;-46
2021/03/10 01:56:11;;;;;;;30.48;12.73;;;;;;;-8.66;75.19;100268.03;3510570;28;20058;-47
2021/03/10 01:57:53;;;;;;;32.67;12.73;;;;;;;-8.64;75.31;100265.66;3516121;28;20043;-47
2021/03/10 01:59:35;;;;;;;30.75;11.70;;;;;;;-8.66;74.68;100267.13;3525069;28;20052;-47
2021/03/10 02:01:16;;;;;;;32.78;11.88;;;;;;;-8.69;74.26;100264.31;3519644;28;20043;-47
2021/03/10 02:02:58;;;;;;;36.92;12.57;;;;;;;-8.72;74.08;100267.44;3523672;28;20415;-47
2021/03/10 02:04:40;;;;;;;26.23;12.05;;;;;;;-8.74;74.14;100268.88;3522084;28;20465;-48
2021/03/10 02:06:32;;;;;;;33.55;12.73;;;;;;;-8.75;74.61;100272.16;3519601;28;20142;-47
2021/03/10 02:08:29;;;;;;;27.60;10.80;;;;;;;-8.75;75.06;100274.66;3524628;28;20405;-46
2021/03/10 02:10:19;;;;;;;31.65;12.70;;;;;;;-8.75;75.38;100264.59;3519686;28;20054;-47
2021/03/10 02:12:08;;;;;;;29.35;12.70;;;;;;;-8.73;75.75;100270.66;3522691;28;20051;-46
2021/03/10 02:14:04;;;;;;;32.30;12.32;;;;;;;-8.72;76.11;100269.94;3521705;28;20100;-47
2021/03/10 02:15:52;;;;;;;30.23;12.80;;;;;;;-8.70;76.64;100272.59;3521199;28;20047;-47
2021/03/10 02:17:39;;;;;;;29.13;12.95;;;;;;;-8.70;77.16;100273.50;3522996;28;20500;-47
2021/03/10 02:19:58;;;;;;;29.15;11.40;;;;;;;-8.69;77.13;100269.34;3511878;28;20512;-46
2021/03/10 02:21:48;;;;;;;26.23;10.95;;;;;;;-8.72;77.14;100268.31;3513844;28;20048;-47
2021/03/10 02:23:55;;;;;;;32.20;12.25;;;;;;;-8.74;77.02;100269.78;3510276;28;20554;-47
2021/03/10 02:25:52;;;;;;;27.80;10.95;;;;;;;-8.76;76.89;100265.31;3522271;28;20052;-46
2021/03/10 02:27:41;;;;;;;26.55;10.88;;;;;;;-8.78;77.19;100262.66;3523664;28;20104;-47
2021/03/10 02:29:24;;;;;;;20.73;9.63;;;;;;;-8.79;77.17;100268.44;3522145;28;20424;-47
2021/03/10 02:31:08;;;;;;;35.00;10.52;;;;;;;-8.80;76.97;100273.31;3522287;28;20051;-47
2021/03/10 02:32:53;;;;;;;25.92;9.98;;;;;;;-8.82;76.98;100269.75;3519411;28;20106;-47
2021/03/10 02:34:36;;;;;;;24.20;10.77;;;;;;;-8.85;76.78;100265.31;3524511;28;20047;-46
2021/03/10 02:36:19;;;;;;;19.65;9.70;;;;;;;-8.86;76.92;100270.19;3512840;28;20044;-48
2021/03/10 02:38:05;;;;;;;22.38;10.00;;;;;;;-8.87;76.90;100265.91;3510952;28;20055;-48
2021/03/10 02:39:47;;;;;;;24.63;8.68;;;;;;;-8.88;76.81;100270.06;3522228;28;20077;-48
2021/03/10 02:41:31;;;;;;;23.58;9.85;;;;;;;-8.89;76.77;100262.34;3519127;28;20158;-48
2021/03/10 02:43:13;;;;;;;20.73;8.30;;;;;;;-8.89;77.00;100264.88;3524355;28;20412;-47
2021/03/10 02:44:56;;;;;;;21.80;8.85;;;;;;;-8.91;76.57;100258.06;3520854;28;20044;-47
2021/03/10 02:46:39;;;;;;;17.20;8.35;;;;;;;-8.91;76.41;100259.69;3523993;28;20059;-47
2021/03/10 02:48:22;;;;;;;22.50;8.93;;;;;;;-8.91;76.32;100268.09;3521165;28;20044;-47
2021/03/10 02:50:06;;;;;;;24.15;8.52;;;;;;;-8.92;76.33;100263.84;3520855;28;20055;-48
2021/03/10 02:51:48;;;;;;;16.77;7.93;;;;;;;-8.91;76.29;100262.19;3522218;28;20146;-47
2021/03/10 02:53:31;;;;;;;13.93;7.60;;;;;;;-8.91;76.32;100267.22;3519491;28;20112;-47
2021/03/10 02:55:13;;;;;;;23.52;8.25;;;;;;;-8.91;76.09;100265.59;3523995;28;20047;-47
2021/03/10 02:56:55;;;;;;;21.58;8.55;;;;;;;-8.90;75.83;100268.97;3520421;28;20048;-47
2021/03/10 02:58:37;;;;;;;21.30;8.05;;;;;;;-8.87;75.25;100265.91;3522370;28;20128;-46
2021/03/10 03:00:21;;;;;;;16.65;8.15;;;;;;;-8.82;74.72;100268.13;3521084;28;20051;-47
2021/03/10 03:02:02;;;;;;;;;;;;;;;-8.78;74.39;100269.31;3522189;28;20123;-47
2021/03/10 03:03:44;;;;;;;16.60;7.15;;;;;;;-8.73;73.45;100264.00;3522856;28;19923;-46
2021/03/10 03:05:25;;;;;;;19.92;7.50;;;;;;;-8.68;73.23;100269.50;3520519;28;20144;-47
2021/03/10 03:07:06;;;;;;;20.98;8.35;;;;;;;-8.61;73.36;100266.84;3524306;28;20047;-49
2021/03/10 03:08:48;;;;;;;19.63;8.18;;;;;;;-8.54;73.11;100266.72;3519122;28;20516;-47
2021/03/10 03:10:34;;;;;;;15.32;7.50;;;;;;;-8.48;72.60;100263.91;3523351;28;20511;-47
2021/03/10 03:12:16;;;;;;;17.30;7.72;;;;;;;-8.42;72.22;100262.00;3521255;28;20051;-48
2021/03/10 03:14:01;;;;;;;18.50;7.85;;;;;;;-8.37;71.93;100267.47;3519066;28;20442;-47
2021/03/10 03:15:44;;;;;;;15.35;6.65;;;;;;;-8.31;71.89;100275.63;3510095;28;20067;-48
2021/03/10 03:17:26;;;;;;;21.90;8.15;;;;;;;-8.27;71.77;100267.63;3513842;28;20044;-46
2021/03/10 03:19:08;;;;;;;17.80;9.32;;;;;;;-8.23;71.19;100262.16;3509714;28;20532;-47
2021/03/10 03:20:50;;;;;;;16.33;8.05;;;;;;;-8.19;70.42;100269.25;3518875;28;20043;-47
2021/03/10 03:22:32;;;;;;;16.88;8.30;;;;;;;-8.16;70.67;100271.16;3523109;28;20048;-48
2021/03/10 03:24:16;;;;;;;20.27;7.88;;;;;;;-8.12;70.74;100265.72;3521269;28;20105;-47
2021/03/10 03:25:59;;;;;;;16.05;8.18;;;;;;;-8.11;70.10;100272.50;3520017;28;20505;-47
2021/03/10 03:27:42;;;;;;;18.52;7.85;;;;;;;-8.10;69.90;100271.78;3524111;28;20096;-46
2021/03/10 03:29:26;;;;;;;15.57;8.18;;;;;;;-8.09;69.89;100273.53;3514246;28;20040;-47
2021/03/10 03:31:08;;;;;;;19.13;8.68;;;;;;;-8.08;69.65;100277.84;3510201;28;20058;-46
2021/03/10 03:32:51;;;;;;;23.73;9.13;;;;;;;-8.07;69.89;100276.22;3521184;28;20428;-47
2021/03/10 03:34:33;;;;;;;23.10;8.75;;;;;;;-8.08;70.02;100275.31;3520879;28;20055;-47
2021/03/10 03:36:14;;;;;;;21.42;9.32;;;;;;;-8.07;70.26;100268.66;3509730;28;20056;-47
2021/03/10 03:37:56;;;;;;;17.60;8.00;;;;;;;-8.06;70.35;100271.31;3514763;28;20051;-47
2021/03/10 03:39:38;;;;;;;20.95;9.80;;;;;;;-8.03;70.82;100273.28;3523866;28;20052;-47
2021/03/10 03:41:21;;;;;;;21.25;8.77;;;;;;;-8.01;70.80;100269.25;3520348;28;20043;-47
2021/03/10 03:43:06;;;;;;;24.52;10.40;;;;;;;-8.01;70.79;100271.78;3525143;28;20047;-46
2021/03/10 03:44:48;;;;;;;21.45;10.48;;;;;;;-8.02;70.88;100270.88;3513878;28;20079;-47
2021/03/10 03:46:30;;;;;;;24.52;10.13;;;;;;;-8.01;70.97;100277.69;3515761;28;20052;-47
2021/03/10 03:48:12;;;;;;;26.00;10.50;;;;;;;-8.01;70.81;100277.69;3526246;28;20052;-47
2021/03/10 03:49:54;;;;;;;26.83;10.93;;;;;;;-8.02;70.53;100273.38;3521287;28;20044;-46
2021/03/10 03:51:35;;;;;;;25.60;11.23;;;;;;;-8.02;70.73;100273.38;3525574;28;20055;-48
2021/03/10 03:53:17;;;;;;;24.75;11.32;;;;;;;-8.01;70.74;100276.81;3523181;28;20487;-47
2021/03/10 03:54:58;;;;;;;23.92;10.55;;;;;;;-8.01;70.34;100271.78;3524729;28;20039;-47
2021/03/10 03:56:40;;;;;;;26.75;11.93;;;;;;;-8.03;70.34;100276.66;3524108;28;20062;-47
2021/03/10 03:58:21;;;;;;;27.85;12.80;;;;;;;-8.02;70.71;100277.53;3522412;28;20052;-47
2021/03/10 04:00:05;;;;;;;30.98;11.80;;;;;;;-8.02;70.83;100280.06;3526027;28;20500;-47
2021/03/10 04:01:46;;;;;;;;;;;;;;;-8.02;70.98;100282.56;3522872;28;20039;-48
2021/03/10 04:03:27;;;;;;;30.20;10.55;;;;;;;-8.03;71.01;100275.78;3525118;28;20018;-47
2021/03/10 04:05:14;;;;;;;26.30;11.57;;;;;;;-8.02;70.89;100287.59;3522714;28;20056;-47
2021/03/10 04:07:09;;;;;;;23.45;11.45;;;;;;;-8.03;71.05;100274.16;3522883;28;20459;-46
2021/03/10 04:08:51;;;;;;;24.27;10.52;;;;;;;-8.03;70.90;100270.75;3525644;28;20143;-47
2021/03/10 04:10:34;;;;;;;26.33;10.55;;;;;;;-8.03;71.15;100270.75;3522369;28;20050;-47
2021/03/10 04:12:15;;;;;;;25.30;10.93;;;;;;;-8.02;71.26;100275.03;3525971;28;20058;-47
2021/03/10 04:13:56;;;;;;;25.08;10.48;;;;;;;-8.03;71.22;100274.16;3520409;28;20044;-48
2021/03/10 04:15:39;;;;;;;31.63;11.45;;;;;;;-8.03;71.30;100276.66;3523478;28;20048;-47
2021/03/10 04:17:20;;;;;;;26.17;11.40;;;;;;;-8.04;71.17;100269.84;3523215;28;20062;-48
2021/03/10 04:19:02;;;;;;;26.92;11.23;;;;;;;-8.03;70.95;100271.63;3521408;28;20054;-47
2021/03/10 04:20:43;;;;;;;23.40;11.20;;;;;;;-8.05;71.01;100270.59;3525566;28;20044;-46
2021/03/10 04:22:25;;;;;;;28.98;12.02;;;;;;;-8.05;70.95;100277.25;3520771;28;20048;-48
2021/03/10 04:24:07;;;;;;;24.60;10.90;;;;;;;-8.07;70.98;100274.59;3525971;28;20047;-47
2021/03/10 04:25:48;;;;;;;24.50;11.88;;;;;;;-8.08;70.79;100277.84;3522323;28;20523;-58
2021/03/10 04:27:30;;;;;;;23.75;11.80;;;;;;;-8.08;71.04;100279.50;3523403;28;20101;-58
2021/03/10 04:29:11;;;;;;;29.17;11.73;;;;;;;-8.09;71.22;100277.69;3512966;28;20076;-58
2021/03/10 04:30:53;;;;;;;23.65;11.43;;;;;;;-8.10;71.18;100284.38;3515176;28;20043;-58
2021/03/10 04:32:34;;;;;;;26.55;11.40;;;;;;;-8.09;71.57;100288.63;3525379;28;20048;-58
2021/03/10 04:34:16;;;;;;;30.05;12.60;;;;;;;-8.09;71.46;100285.25;3517836;28;20059;-58
2021/03/10 04:35:57;;;;;;;24.90;12.05;;;;;;;-8.09;71.49;100283.59;3511434;28;20047;-58
2021/03/10 04:37:42;;;;;;;26.58;12.10;;;;;;;-8.08;72.16;100289.56;3521977;28;20534;-58
2021/03/10 04:39:23;;;;;;;28.33;12.63;;;;;;;-8.04;72.38;100279.03;3523373;28;20052;-58
2021/03/10 04:41:05;;;;;;;32.05;12.52;;;;;;;-8.02;72.63;100285.97;3522864;28;20050;-56
2021/03/10 04:42:46;;;;;;;27.45;11.88;;;;;;;-7.97;73.04;100283.91;3521113;28;20517;-58
2021/03/10 04:44:28;;;;;;;28.40;12.25;;;;;;;-7.94;73.11;100281.69;3525224;28;20048;-58
2021/03/10 04:46:10;;;;;;;23.90;11.48;;;;;;;-7.93;72.73;100280.06;3521825;28;20047;-57
2021/03/10 04:47:51;;;;;;;27.95;11.95;;;;;;;-7.88;72.47;100287.31;3525546;28;20579;-58
2021/03/10 04:49:33;;;;;;;33.30;13.48;;;;;;;-7.86;72.74;100285.81;3522224;28;20075;-58
2021/03/10 04:51:14;;;;;;;26.48;10.88;;;;;;;-7.82;72.46;100289.56;3523136;28;20051;-58
2021/03/10 04:52:56;;;;;;;24.13;10.50;;;;;;;-7.75;72.63;100288.47;3522615;28;20432;-58
2021/03/10 04:54:37;;;;;;;25.42;11.63;;;;;;;-7.70;72.56;100289.81;3521594;28;20075;-58
2021/03/10 04:56:18;;;;;;;22.13;11.02;;;;;;;-7.64;72.68;100296.31;3511667;28;20109;-58
2021/03/10 04:58:00;;;;;;;27.02;11.00;;;;;;;-7.53;73.27;100294.81;3517789;28;20047;-58
2021/03/10 04:59:41;;;;;;;21.98;10.40;;;;;;;-7.45;72.78;100291.41;3525741;28;20051;-58
2021/03/10 05:01:23;;;;;;;30.83;11.98;;;;;;;-7.34;73.09;100291.50;3520419;28;20092;-47
2021/03/10 05:03:04;;;;;;;24.40;11.65;;;;;;;-7.22;73.30;100300.22;3524456;28;20047;-47
2021/03/10 05:04:46;;;;;;;27.13;10.57;;;;;;;-7.11;72.67;100301.22;3524014;28;20054;-46
2021/03/10 05:06:27;;;;;;;28.35;11.13;;;;;;;-7.02;72.51;100292.84;3521556;28;20496;-47
2021/03/10 05:08:10;;;;;;;25.40;11.23;;;;;;;-6.92;72.71;100297.13;3525197;28;20520;-47
2021/03/10 05:09:51;;;;;;;28.05;12.80;;;;;;;-6.80;73.13;100299.88;3521514;28;20063;-47
2021/03/10 05:11:33;;;;;;;28.10;11.73;;;;;;;-6.69;73.10;100300.88;3524544;28;20500;-46
2021/03/10 05:13:14;;;;;;;28.83;12.23;;;;;;;-6.57;73.51;100303.63;3520034;28;20055;-47
2021/03/10 05:14:56;;;;;;;26.52;11.13;;;;;;;-6.46;73.85;100300.44;3523095;28;20044;-48
2021/03/10 05:16:38;;;;;;;29.83;12.15;;;;;;;-6.35;73.78;100303.94;3523824;28;20056;-47
2021/03/10 05:18:20;;;;;;;27.25;11.45;;;;;;;-6.25;73.74;100306.56;3520205;28;20565;-47
2021/03/10 05:20:03;;;;;;;26.17;11.85;;;;;;;-6.14;72.90;100307.50;3525066;28;20047;-46
2021/03/10 05:21:44;;;;;;;27.50;11.73;;;;;;;-6.03;73.10;100308.47;3521769;28;20047;-46
2021/03/10 05:23:25;;;;;;;29.20;12.00;;;;;;;-5.94;73.05;100304.22;3523216;28;20047;-47
2021/03/10 05:25:09;;;;;;;22.77;11.13;;;;;;;-5.80;72.20;100305.44;3521089;28;20420;-47
2021/03/10 05:26:50;;;;;;;;;;;;;;;-5.69;71.85;100302.22;3522007;28;20051;-47
2021/03/10 05:28:32;;;;;;;27.33;11.10;;;;;;;-5.56;71.70;100304.19;3523966;28;19923;-48
2021/03/10 05:30:15;;;;;;;25.88;11.85;;;;;;;-5.45;72.29;100303.47;3520067;28;20644;-47
2021/03/10 05:31:57;;;;;;;28.33;11.80;;;;;;;-5.34;71.86;100302.75;3524954;28;20062;-47
2021/03/10 05:33:38;;;;;;;22.88;11.25;;;;;;;-5.25;70.68;100302.66;3516221;28;20055;-48
2021/03/10 05:35:20;;;;;;;26.05;11.32;;;;;;;-5.16;70.10;100302.56;3511961;28;20066;-47
2021/03/10 05:37:02;;;;;;;30.95;12.85;;;;;;;-5.07;70.58;100303.38;3513024;28;20048;-47
2021/03/10 05:38:43;;;;;;;29.23;12.60;;;;;;;-4.97;69.45;100305.03;3513952;28;20083;-47
2021/03/10 05:40:25;;;;;;;26.63;10.45;;;;;;;-4.86;69.74;100303.38;3523620;28;20048;-47
2021/03/10 05:42:07;;;;;;;22.35;10.35;;;;;;;-4.74;69.50;100305.28;3521213;28;20532;-48
2021/03/10 05:43:48;;;;;;;26.40;10.55;;;;;;;-4.64;69.56;100306.09;3524991;28;20051;-48
2021/03/10 05:45:30;;;;;;;21.90;9.40;;;;;;;-4.54;69.96;100304.44;3521378;28;20054;-48
2021/03/10 05:47:12;;;;;;;24.08;10.40;;;;;;;-4.44;68.46;100305.22;3524210;28;20108;-48
2021/03/10 05:48:54;;;;;;;20.02;9.68;;;;;;;-4.35;69.10;100304.34;3513153;28;20052;-47
2021/03/10 05:50:36;;;;;;;22.70;9.35;;;;;;;-4.24;68.57;100310.28;3513919;28;20083;-47
2021/03/10 05:52:18;;;;;;;18.20;9.00;;;;;;;-4.16;67.28;100304.19;3523461;28;20093;-47
2021/03/10 05:54:00;;;;;;;17.08;8.68;;;;;;;-4.08;66.19;100311.53;3521383;28;20078;-47
2021/03/10 05:55:42;;;;;;;17.73;8.70;;;;;;;-4.00;66.07;100313.94;3524701;28;20500;-47
2021/03/10 05:57:23;;;;;;;19.60;7.90;;;;;;;-3.94;65.33;100313.56;3521077;28;20458;-48
2021/03/10 05:59:05;;;;;;;17.17;8.38;;;;;;;-3.87;64.11;100310.75;3524137;28;20066;-47
2021/03/10 06:00:47;;;;;;;17.88;8.32;;;;;;;-3.79;62.51;100312.25;3521849;28;20544;-48
2021/03/10 06:02:30;;;;;;;16.45;8.30;;;;;;;-3.68;64.12;100319.84;3521041;28;20047;-47
2021/03/10 06:04:14;;;;;;;19.58;8.48;;;;;;;-3.56;64.67;100318.28;3510740;28;20052;-50
2021/03/10 06:05:59;;;;;;;19.35;7.78;;;;;;;-3.42;63.95;100325.34;3513538;28;20052;-48
2021/03/10 06:07:41;;;;;;;12.98;6.97;;;;;;;-3.28;62.33;100323.00;3524819;28;20051;-49
2021/03/10 06:09:22;;;;;;;12.32;6.28;;;;;;;-3.19;63.87;100329.69;3521098;28;20527;-47
2021/03/10 06:11:03;;;;;;;16.98;6.88;;;;;;;-3.06;63.62;100328.09;3523535;28;20089;-48
2021/03/10 06:12:47;;;;;;;20.13;7.03;;;;;;;-2.95;62.98;100331.47;3522012;28;20516;-49
2021/03/10 06:14:30;;;;;;;12.98;6.40;;;;;;;-2.89;61.63;100327.78;3518173;28;20105;-48
2021/03/10 06:16:20;;;;;;;15.20;6.38;;;;;;;-2.79;60.38;100328.47;3510364;28;20583;-47
2021/03/10 06:18:02;;;;;;;13.88;7.30;;;;;;;-2.74;62.52;100330.63;3518375;28;20450;-47
2021/03/10 06:19:44;;;;;;;15.68;6.57;;;;;;;-2.65;62.27;100338.06;3523322;28;20047;-48
2021/03/10 06:21:26;;;;;;;14.73;6.65;;;;;;;-2.55;62.96;100340.50;3512868;28;20448;-48
2021/03/10 06:23:14;;;;;;;14.82;7.50;;;;;;;-2.48;59.50;100337.66;3511284;28;20040;-48
2021/03/10 06:25:00;;;;;;;15.27;6.75;;;;;;;-2.38;61.49;100344.34;3522988;28;20083;-48
2021/03/10 06:26:52;;;;;;;17.58;7.13;;;;;;;-2.28;61.82;100339.19;3519529;28;20051;-49
2021/03/10 06:28:35;;;;;;;14.10;6.70;;;;;;;-2.17;62.11;100337.44;3523752;28;20097;-47
2021/03/10 06:30:17;;;;;;;14.00;7.18;;;;;;;-2.03;61.97;100340.16;3520544;28;20424;-47
2021/03/10 06:32:04;;;;;;;14.27;5.88;;;;;;;-1.91;62.15;100338.50;3521504;28;20355;-48
2021/03/10 06:33:58;;;;;;;16.98;6.63;;;;;;;-1.80;61.73;100334.22;3511562;28;20062;-48
2021/03/10 06:35:42;;;;;;;14.20;6.17;;;;;;;-1.69;62.01;100335.88;3516904;28;20077;-48
2021/03/10 06:37:26;;;;;;;14.07;6.50;;;;;;;-1.60;61.41;100338.22;3524148;28;20295;-47
2021/03/10 06:39:24;;;;;;;17.25;6.45;;;;;;;-1.52;59.95;100342.19;3521011;28;20063;-49
2021/03/10 06:41:05;;;;;;;15.40;7.43;;;;;;;-1.46;56.80;100337.53;3521522;28;20054;-48
2021/03/10 06:42:53;;;;;;;14.35;6.78;;;;;;;-1.43;57.69;100332.69;3510344;28;20113;-49
2021/03/10 06:44:35;;;;;;;18.67;7.80;;;;;;;-1.39;59.01;100334.66;3516960;28;20039;-49
2021/03/10 06:46:18;;;;;;;12.80;6.70;;;;;;;-1.31;59.53;100343.75;3524089;28;20070;-47
2021/03/10 06:48:00;;;;;;;17.48;7.05;;;;;;;-1.22;59.70;100333.34;3520796;28;20108;-49
2021/03/10 06:49:51;;;;;;;14.35;7.22;;;;;;;-1.15;60.53;100332.13;3523861;28;20101;-51
2021/03/10 06:51:33;;;;;;;15.05;7.18;;;;;;;-1.21;56.56;100335.09;3521682;28;20532;-52
2021/03/10 06:53:14;;;;;;;18.35;7.35;;;;;;;-1.14;56.69;100334.75;3519540;28;20051;-59
2021/03/10 06:54:57;;;;;;;16.40;7.38;;;;;;;-1.03;58.48;100335.53;3509968;28;20132;-60
2021/03/10 06:56:38;;;;;;;13.38;6.70;;;;;;;-0.92;59.66;100336.28;3518324;28;20579;-60
2021/03/10 06:58:23;;;;;;;16.67;7.78;;;;;;;-0.91;55.73;100335.47;3522437;28;20059;-59
2021/03/10 07:00:06;;;;;;;14.27;6.63;;;;;;;-0.86;53.85;100333.25;3511597;28;20052;-59
2021/03/10 07:01:47;;;;;;;20.13;7.18;;;;;;;-0.78;53.99;100335.56;3513105;28;20480;-55
2021/03/10 07:03:30;;;;;;;17.10;8.05;;;;;;;-0.67;55.83;100341.41;3510526;28;20059;-51
2021/03/10 07:05:13;;;;;;;12.73;6.93;;;;;;;-0.73;55.08;100338.41;3515281;28;20501;-51
2021/03/10 07:06:55;;;;;;;21.05;7.88;;;;;;;-0.95;50.68;100338.59;3523929;28;20052;-53
2021/03/10 07:08:37;;;;;;;13.00;7.43;;;;;;;-1.04;53.51;100340.50;3520592;28;20071;-50
2021/03/10 07:10:18;;;;;;;13.98;6.53;;;;;;;-0.97;54.38;100348.66;3523449;28;20048;-52
2021/03/10 07:12:00;;;;;;;10.35;5.53;;;;;;;-0.94;52.71;100337.81;3520860;28;20073;-53
2021/03/10 07:13:42;;;;;;;9.70;5.28;;;;;;;-0.95;50.86;100338.59;3519195;28;20077;-52
2021/03/10 07:15:24;;;;;;;13.85;6.28;;;;;;;-1.07;50.78;100337.72;3522900;28;20059;-49
2021/03/10 07:17:07;;;;;;;15.10;7.38;;;;;;;-1.05;51.87;100337.06;3520188;28;20075;-48
2021/03/10 07:18:49;;;;;;;11.55;5.75;;;;;;;-1.04;54.43;100333.75;3526778;28;20062;-49
2021/03/10 07:20:31;;;;;;;14.88;6.60;;;;;;;-1.04;50.70;100327.78;3522930;28;20043;-52
2021/03/10 07:22:19;;;;;;;13.25;5.78;;;;;;;-1.08;49.34;100326.69;3524372;28;20052;-49
2021/03/10 07:24:04;;;;;;;13.60;4.88;;;;;;;-1.00;52.69;100327.19;3523754;28;20055;-50
2021/03/10 07:25:47;;;;;;;10.10;4.80;;;;;;;-0.87;54.04;100329.84;3521587;28;20479;-50
2021/03/10 07:27:37;;;;;;;7.50;3.67;;;;;;;-0.79;52.20;100328.69;3526315;28;20448;-49
2021/03/10 07:29:19;;;;;;;9.40;4.75;;;;;;;-0.78;51.22;100335.56;3522857;28;20075;-48
2021/03/10 07:31:01;;;;;;;9.55;4.70;;;;;;;-0.72;50.80;100330.88;3525498;28;20545;-51
2021/03/10 07:32:43;;;;;;;7.20;4.03;;;;;;;-0.79;48.81;100327.81;3523542;28;20509;-48
2021/03/10 07:34:25;;;;;;;7.57;4.13;;;;;;;-0.86;47.68;100331.59;3523956;28;20136;-52
2021/03/10 07:36:08;;;;;;;10.00;4.75;;;;;;;-0.89;49.94;100333.91;3524912;28;20102;-50
2021/03/10 07:37:53;;;;;;;9.57;5.38;;;;;;;-0.88;49.23;100328.06;3522849;28;20052;-49
2021/03/10 07:40:09;;;;;;;8.52;4.70;;;;;;;-0.76;50.09;100336.56;3524447;28;20454;-49
2021/03/10 07:41:52;;;;;;;16.13;5.13;;;;;;;-0.77;52.28;100332.22;3514328;28;20051;-49
2021/03/10 07:43:37;;;;;;;8.13;3.28;;;;;;;-0.89;47.62;100328.81;3514539;28;20044;-49
2021/03/10 07:45:19;;;;;;;9.07;3.40;;;;;;;-0.82;50.97;100330.13;3526247;28;20047;-48
2021/03/10 07:47:06;;;;;;;10.23;4.75;;;;;;;-0.73;48.78;100328.22;3522488;28;20171;-48
2021/03/10 07:48:48;;;;;;;9.88;4.60;;;;;;;-0.63;50.83;100330.63;3525923;28;20082;-50
2021/03/10 07:50:39;;;;;;;20.08;5.82;;;;;;;-0.51;48.55;100328.03;3513817;28;20079;-48
2021/03/10 07:52:21;;;;;;;18.25;5.28;;;;;;;-0.34;51.45;100330.06;3514085;28;20052;-49